sensor_id;sensor_type;location;lat;lon;timestamp;pressure;altitude;pressure_sealevel;temperature;humidity
19236;BME280;9752;54.270;12.470;2023-07-20T00:03:43;101555.22;;;13.37;100.00
19236;BME280;9752;54.270;12.470;2023-07-20T00:08:46;101544.81;;;13.37;100.00
19236;BME280;9752;54.270;12.470;2023-07-20T00:13:48;101580.75;;;13.43;100.00
19236;BME280;9752;54.270;12.470;2023-07-20T00:18:49;101582.16;;;13.51;100.00
19236;BME280;9752;54.270;12.470;2023-07-20T00:23:52;101647.88;;;13.60;100.00
19236;BME280;9752;54.270;12.470;2023-07-20T00:28:54;101737.69;;;13.65;100.00
19236;BME280;9752;54.270;12.470;2023-07-20T00:33:56;101718.69;;;13.53;100.00
19236;BME280;9752;54.270;12.470;2023-07-20T00:38:59;101748.88;;;13.50;100.00
19236;BME280;9752;54.270;12.470;2023-07-20T00:44:00;101749.06;;;13.53;100.00
19236;BME280;9752;54.270;12.470;2023-07-20T00:49:02;101788.06;;;13.51;100.00
19236;BME280;9752;54.270;12.470;2023-07-20T00:54:05;101764.19;;;13.58;100.00
19236;BME280;9752;54.270;12.470;2023-07-20T00:59:10;101804.16;;;13.72;100.00
19236;BME280;9752;54.270;12.470;2023-07-20T01:04:12;101845.38;;;13.78;100.00
19236;BME280;9752;54.270;12.470;2023-07-20T01:09:20;101848.97;;;13.80;100.00
19236;BME280;9752;54.270;12.470;2023-07-20T01:14:26;101859.53;;;13.68;100.00
19236;BME280;9752;54.270;12.470;2023-07-20T01:19:28;101904.13;;;13.46;100.00
19236;BME280;9752;54.270;12.470;2023-07-20T01:24:52;101868.00;;;13.25;100.00
19236;BME280;9752;54.270;12.470;2023-07-20T01:30:25;101894.75;;;13.09;100.00
19236;BME280;9752;54.270;12.470;2023-07-20T01:35:34;101898.78;;;12.93;100.00
19236;BME280;9752;54.270;12.470;2023-07-20T01:40:37;101906.75;;;12.82;100.00
19236;BME280;9752;54.270;12.470;2023-07-20T01:45:39;101929.34;;;12.70;100.00
19236;BME280;9752;54.270;12.470;2023-07-20T01:50:43;101947.00;;;12.74;100.00
19236;BME280;9752;54.270;12.470;2023-07-20T01:55:44;101949.47;;;12.84;100.00
19236;BME280;9752;54.270;12.470;2023-07-20T02:00:48;101995.16;;;12.93;100.00
19236;BME280;9752;54.270;12.470;2023-07-20T02:05:51;102001.13;;;12.92;100.00
19236;BME280;9752;54.270;12.470;2023-07-20T02:10:54;102015.56;;;12.86;100.00
19236;BME280;9752;54.270;12.470;2023-07-20T02:15:55;102295.09;;;12.99;100.00
19236;BME280;9752;54.270;12.470;2023-07-20T02:20:58;102360.22;;;13.11;100.00
19236;BME280;9752;54.270;12.470;2023-07-20T02:26:00;102362.81;;;12.99;100.00
19236;BME280;9752;54.270;12.470;2023-07-20T02:31:02;102405.19;;;12.96;100.00
19236;BME280;9752;54.270;12.470;2023-07-20T02:36:05;102445.59;;;13.03;100.00
19236;BME280;9752;54.270;12.470;2023-07-20T02:41:06;102503.63;;;13.12;100.00
19236;BME280;9752;54.270;12.470;2023-07-20T02:46:08;102559.50;;;13.16;100.00
19236;BME280;9752;54.270;12.470;2023-07-20T02:51:11;102588.75;;;13.23;100.00
19236;BME280;9752;54.270;12.470;2023-07-20T02:56:13;102661.28;;;13.29;100.00
19236;BME280;9752;54.270;12.470;2023-07-20T03:01:15;102679.03;;;13.33;100.00
19236;BME280;9752;54.270;12.470;2023-07-20T03:06:18;102694.81;;;13.24;100.00
19236;BME280;9752;54.270;12.470;2023-07-20T03:11:20;102745.88;;;13.33;100.00
19236;BME280;9752;54.270;12.470;2023-07-20T03:16:23;102747.03;;;13.36;100.00
19236;BME280;9752;54.270;12.470;2023-07-20T03:21:28;102783.66;;;13.27;100.00
19236;BME280;9752;54.270;12.470;2023-07-20T03:26:30;102790.50;;;13.15;100.00
19236;BME280;9752;54.270;12.470;2023-07-20T03:31:32;102806.53;;;13.09;100.00
19236;BME280;9752;54.270;12.470;2023-07-20T03:36:35;102837.13;;;13.12;100.00
19236;BME280;9752;54.270;12.470;2023-07-20T03:41:36;102834.88;;;13.27;100.00
19236;BME280;9752;54.270;12.470;2023-07-20T03:46:38;102787.94;;;13.37;100.00
19236;BME280;9752;54.270;12.470;2023-07-20T03:51:41;102801.63;;;13.45;100.00
19236;BME280;9752;54.270;12.470;2023-07-20T03:56:43;102838.97;;;13.56;100.00
19236;BME280;9752;54.270;12.470;2023-07-20T04:01:45;102862.81;;;13.60;100.00
19236;BME280;9752;54.270;12.470;2023-07-20T04:06:48;103049.00;;;13.62;100.00
19236;BME280;9752;54.270;12.470;2023-07-20T04:11:49;102822.00;;;13.61;100.00
19236;BME280;9752;54.270;12.470;2023-07-20T04:16:51;102773.06;;;13.69;100.00
19236;BME280;9752;54.270;12.470;2023-07-20T04:21:54;102979.75;;;14.09;100.00
19236;BME280;9752;54.270;12.470;2023-07-20T04:26:56;102873.78;;;14.33;100.00
19236;BME280;9752;54.270;12.470;2023-07-20T04:31:58;102799.59;;;14.53;100.00
19236;BME280;9752;54.270;12.470;2023-07-20T04:37:01;102350.00;;;14.58;100.00
19236;BME280;9752;54.270;12.470;2023-07-20T04:42:03;102511.00;;;14.58;100.00
19236;BME280;9752;54.270;12.470;2023-07-20T04:47:05;102341.38;;;14.59;100.00
19236;BME280;9752;54.270;12.470;2023-07-20T04:52:12;102254.34;;;14.47;100.00
19236;BME280;9752;54.270;12.470;2023-07-20T04:57:13;102133.06;;;14.55;100.00
19236;BME280;9752;54.270;12.470;2023-07-20T05:02:20;102053.44;;;14.62;100.00
19236;BME280;9752;54.270;12.470;2023-07-20T05:07:23;101991.97;;;14.67;100.00
19236;BME280;9752;54.270;12.470;2023-07-20T05:12:25;102035.22;;;14.77;100.00
19236;BME280;9752;54.270;12.470;2023-07-20T05:17:26;101915.63;;;14.86;100.00
19236;BME280;9752;54.270;12.470;2023-07-20T05:22:30;101889.44;;;14.99;100.00
19236;BME280;9752;54.270;12.470;2023-07-20T05:27:31;101960.38;;;15.20;100.00
19236;BME280;9752;54.270;12.470;2023-07-20T05:32:33;102174.56;;;15.74;100.00
19236;BME280;9752;54.270;12.470;2023-07-20T05:37:36;102085.44;;;16.62;100.00
19236;BME280;9752;54.270;12.470;2023-07-20T05:42:38;101938.91;;;16.48;100.00
19236;BME280;9752;54.270;12.470;2023-07-20T05:47:39;101878.03;;;16.36;100.00
19236;BME280;9752;54.270;12.470;2023-07-20T05:52:42;101833.84;;;15.78;100.00
19236;BME280;9752;54.270;12.470;2023-07-20T05:57:45;101822.34;;;15.59;100.00
19236;BME280;9752;54.270;12.470;2023-07-20T06:02:48;101809.47;;;15.48;100.00
19236;BME280;9752;54.270;12.470;2023-07-20T06:07:51;101820.88;;;15.65;100.00
19236;BME280;9752;54.270;12.470;2023-07-20T06:12:52;102042.19;;;15.62;100.00
19236;BME280;9752;54.270;12.470;2023-07-20T06:17:55;101876.69;;;15.80;100.00
19236;BME280;9752;54.270;12.470;2023-07-20T06:22:59;101837.13;;;15.74;100.00
19236;BME280;9752;54.270;12.470;2023-07-20T06:28:01;101826.56;;;16.53;100.00
19236;BME280;9752;54.270;12.470;2023-07-20T06:33:04;101813.22;;;16.99;100.00
19236;BME280;9752;54.270;12.470;2023-07-20T06:38:07;101785.81;;;16.25;100.00
19236;BME280;9752;54.270;12.470;2023-07-20T06:43:09;101785.56;;;16.20;100.00
19236;BME280;9752;54.270;12.470;2023-07-20T06:48:10;101798.69;;;16.71;100.00
19236;BME280;9752;54.270;12.470;2023-07-20T06:53:13;101809.78;;;17.54;100.00
19236;BME280;9752;54.270;12.470;2023-07-20T06:58:15;101786.06;;;17.33;100.00
19236;BME280;9752;54.270;12.470;2023-07-20T07:03:17;101748.97;;;16.38;100.00
19236;BME280;9752;54.270;12.470;2023-07-20T07:08:20;101773.69;;;16.78;100.00
19236;BME280;9752;54.270;12.470;2023-07-20T07:13:22;101786.03;;;16.81;100.00
19236;BME280;9752;54.270;12.470;2023-07-20T07:18:23;101767.69;;;16.81;100.00
19236;BME280;9752;54.270;12.470;2023-07-20T07:23:28;101749.09;;;15.91;100.00
19236;BME280;9752;54.270;12.470;2023-07-20T07:28:30;101754.03;;;15.07;100.00
19236;BME280;9752;54.270;12.470;2023-07-20T07:33:32;101746.25;;;14.34;100.00
19236;BME280;9752;54.270;12.470;2023-07-20T07:38:36;101752.03;;;14.00;100.00
19236;BME280;9752;54.270;12.470;2023-07-20T07:43:37;101767.44;;;13.82;100.00
19236;BME280;9752;54.270;12.470;2023-07-20T07:48:40;101779.78;;;14.28;100.00
19236;BME280;9752;54.270;12.470;2023-07-20T07:53:43;101814.75;;;15.18;100.00
19236;BME280;9752;54.270;12.470;2023-07-20T07:58:45;101834.56;;;16.23;100.00
19236;BME280;9752;54.270;12.470;2023-07-20T08:03:46;101840.00;;;16.93;100.00
19236;BME280;9752;54.270;12.470;2023-07-20T08:08:49;101821.03;;;16.81;100.00
19236;BME280;9752;54.270;12.470;2023-07-20T08:13:51;101829.03;;;17.18;100.00
19236;BME280;9752;54.270;12.470;2023-07-20T08:18:53;101813.84;;;17.11;100.00
19236;BME280;9752;54.270;12.470;2023-07-20T08:23:56;101817.13;;;17.61;100.00
19236;BME280;9752;54.270;12.470;2023-07-20T08:28:57;101812.56;;;17.39;100.00
19236;BME280;9752;54.270;12.470;2023-07-20T08:33:59;101802.59;;;16.45;100.00
19236;BME280;9752;54.270;12.470;2023-07-20T08:39:02;101796.63;;;16.15;100.00
19236;BME280;9752;54.270;12.470;2023-07-20T08:44:04;101794.16;;;16.18;100.00
19236;BME280;9752;54.270;12.470;2023-07-20T08:49:06;101806.38;;;16.68;100.00
19236;BME280;9752;54.270;12.470;2023-07-20T08:54:12;101819.44;;;17.73;100.00
19236;BME280;9752;54.270;12.470;2023-07-20T08:59:16;101801.09;;;17.55;100.00
19236;BME280;9752;54.270;12.470;2023-07-20T09:04:19;101828.34;;;17.94;100.00
19236;BME280;9752;54.270;12.470;2023-07-20T09:09:22;101818.66;;;17.75;100.00
19236;BME280;9752;54.270;12.470;2023-07-20T09:14:24;101814.44;;;17.24;100.00
19236;BME280;9752;54.270;12.470;2023-07-20T09:19:26;101832.59;;;18.10;100.00
19236;BME280;9752;54.270;12.470;2023-07-20T09:24:28;101825.69;;;18.32;100.00
19236;BME280;9752;54.270;12.470;2023-07-20T09:29:30;101816.41;;;18.60;100.00
19236;BME280;9752;54.270;12.470;2023-07-20T09:34:32;101817.72;;;17.91;100.00
19236;BME280;9752;54.270;12.470;2023-07-20T09:39:42;101809.22;;;18.36;100.00
19236;BME280;9752;54.270;12.470;2023-07-20T09:44:44;101815.69;;;18.83;100.00
19236;BME280;9752;54.270;12.470;2023-07-20T09:49:46;101842.00;;;19.46;100.00
19236;BME280;9752;54.270;12.470;2023-07-20T09:54:49;101804.88;;;18.56;100.00
19236;BME280;9752;54.270;12.470;2023-07-20T09:59:51;101795.28;;;17.80;100.00
19236;BME280;9752;54.270;12.470;2023-07-20T10:04:53;101789.84;;;17.58;100.00
19236;BME280;9752;54.270;12.470;2023-07-20T10:09:59;101798.47;;;17.37;100.00
19236;BME280;9752;54.270;12.470;2023-07-20T10:15:15;101809.06;;;17.94;100.00
19236;BME280;9752;54.270;12.470;2023-07-20T10:20:19;101808.63;;;18.22;100.00
19236;BME280;9752;54.270;12.470;2023-07-20T10:25:23;101809.31;;;18.38;100.00
19236;BME280;9752;54.270;12.470;2023-07-20T10:30:26;101801.09;;;18.30;100.00
19236;BME280;9752;54.270;12.470;2023-07-20T10:35:28;101835.53;;;18.77;100.00
19236;BME280;9752;54.270;12.470;2023-07-20T10:40:32;101795.56;;;18.64;100.00
19236;BME280;9752;54.270;12.470;2023-07-20T10:45:35;101775.47;;;18.65;100.00
19236;BME280;9752;54.270;12.470;2023-07-20T10:50:37;101791.22;;;19.05;100.00
19236;BME280;9752;54.270;12.470;2023-07-20T10:55:40;101769.97;;;19.44;100.00
19236;BME280;9752;54.270;12.470;2023-07-20T11:00:58;101772.13;;;18.88;100.00
19236;BME280;9752;54.270;12.470;2023-07-20T11:06:29;101975.84;;;18.61;100.00
19236;BME280;9752;54.270;12.470;2023-07-20T11:11:34;101813.34;;;17.92;100.00
19236;BME280;9752;54.270;12.470;2023-07-20T11:16:40;102074.53;;;17.49;100.00
19236;BME280;9752;54.270;12.470;2023-07-20T11:21:43;101839.09;;;17.09;100.00
19236;BME280;9752;54.270;12.470;2023-07-20T11:26:48;101824.75;;;17.74;100.00
19236;BME280;9752;54.270;12.470;2023-07-20T11:31:50;101803.63;;;17.89;100.00
19236;BME280;9752;54.270;12.470;2023-07-20T11:36:51;101807.38;;;18.33;100.00
19236;BME280;9752;54.270;12.470;2023-07-20T11:41:56;101832.25;;;19.23;100.00
19236;BME280;9752;54.270;12.470;2023-07-20T11:47:01;101811.41;;;18.85;100.00
19236;BME280;9752;54.270;12.470;2023-07-20T11:52:05;101803.97;;;18.96;100.00
19236;BME280;9752;54.270;12.470;2023-07-20T11:57:16;101811.03;;;19.18;100.00
19236;BME280;9752;54.270;12.470;2023-07-20T12:02:17;101818.66;;;19.56;100.00
19236;BME280;9752;54.270;12.470;2023-07-20T12:07:19;101841.19;;;20.39;100.00
19236;BME280;9752;54.270;12.470;2023-07-20T12:12:22;102008.78;;;19.91;100.00
19236;BME280;9752;54.270;12.470;2023-07-20T12:17:24;101935.25;;;19.74;100.00
19236;BME280;9752;54.270;12.470;2023-07-20T12:22:26;101819.38;;;19.51;100.00
19236;BME280;9752;54.270;12.470;2023-07-20T12:27:29;101809.94;;;19.78;100.00
19236;BME280;9752;54.270;12.470;2023-07-20T12:32:30;101824.44;;;19.68;100.00
19236;BME280;9752;54.270;12.470;2023-07-20T12:37:32;101809.69;;;19.07;100.00
19236;BME280;9752;54.270;12.470;2023-07-20T12:42:35;101848.25;;;20.16;100.00
19236;BME280;9752;54.270;12.470;2023-07-20T12:47:37;101806.94;;;19.04;100.00
19236;BME280;9752;54.270;12.470;2023-07-20T12:52:39;101783.44;;;18.47;100.00
19236;BME280;9752;54.270;12.470;2023-07-20T12:57:43;101790.09;;;18.79;100.00
19236;BME280;9752;54.270;12.470;2023-07-20T13:02:45;101800.72;;;19.02;100.00
19236;BME280;9752;54.270;12.470;2023-07-20T13:07:46;101791.66;;;18.95;100.00
19236;BME280;9752;54.270;12.470;2023-07-20T13:12:50;101792.13;;;18.85;100.00
19236;BME280;9752;54.270;12.470;2023-07-20T13:17:52;101776.47;;;18.68;100.00
19236;BME280;9752;54.270;12.470;2023-07-20T13:22:54;101773.00;;;18.48;100.00
19236;BME280;9752;54.270;12.470;2023-07-20T13:27:57;101809.97;;;18.72;100.00
19236;BME280;9752;54.270;12.470;2023-07-20T13:32:58;101791.28;;;18.86;100.00
19236;BME280;9752;54.270;12.470;2023-07-20T13:38:00;101794.88;;;19.09;100.00
19236;BME280;9752;54.270;12.470;2023-07-20T13:43:03;101779.50;;;18.78;100.00
19236;BME280;9752;54.270;12.470;2023-07-20T13:48:05;101959.06;;;18.57;100.00
19236;BME280;9752;54.270;12.470;2023-07-20T13:53:07;101811.47;;;19.08;100.00
19236;BME280;9752;54.270;12.470;2023-07-20T13:58:10;101761.25;;;19.45;100.00
19236;BME280;9752;54.270;12.470;2023-07-20T14:03:11;101741.88;;;18.58;100.00
19236;BME280;9752;54.270;12.470;2023-07-20T14:08:13;101742.03;;;18.41;100.00
19236;BME280;9752;54.270;12.470;2023-07-20T14:13:16;101776.63;;;19.57;100.00
19236;BME280;9752;54.270;12.470;2023-07-20T14:18:18;101750.41;;;19.15;100.00
19236;BME280;9752;54.270;12.470;2023-07-20T14:23:20;101779.03;;;18.07;100.00
19236;BME280;9752;54.270;12.470;2023-07-20T14:28:24;101792.41;;;19.14;100.00
19236;BME280;9752;54.270;12.470;2023-07-20T14:33:25;101825.75;;;20.98;100.00
19236;BME280;9752;54.270;12.470;2023-07-20T14:38:27;101815.63;;;21.65;100.00
19236;BME280;9752;54.270;12.470;2023-07-20T14:43:30;101780.81;;;20.95;100.00
19236;BME280;9752;54.270;12.470;2023-07-20T14:48:32;101797.81;;;21.32;100.00
19236;BME280;9752;54.270;12.470;2023-07-20T14:53:33;101845.28;;;22.42;100.00
19236;BME280;9752;54.270;12.470;2023-07-20T14:58:36;101792.66;;;21.91;100.00
19236;BME280;9752;54.270;12.470;2023-07-20T15:03:38;101808.31;;;22.15;100.00
19236;BME280;9752;54.270;12.470;2023-07-20T15:08:40;101772.16;;;21.54;100.00
19236;BME280;9752;54.270;12.470;2023-07-20T15:13:43;101802.75;;;22.35;100.00
19236;BME280;9752;54.270;12.470;2023-07-20T15:18:44;101774.63;;;21.76;100.00
19236;BME280;9752;54.270;12.470;2023-07-20T15:23:47;101806.34;;;22.37;100.00
19236;BME280;9752;54.270;12.470;2023-07-20T15:28:51;101772.31;;;21.89;100.00
19236;BME280;9752;54.270;12.470;2023-07-20T15:33:54;101801.78;;;22.98;100.00
19236;BME280;9752;54.270;12.470;2023-07-20T15:38:56;101766.91;;;23.13;100.00
19236;BME280;9752;54.270;12.470;2023-07-20T15:43:59;101760.09;;;22.89;100.00
19236;BME280;9752;54.270;12.470;2023-07-20T15:49:01;101799.06;;;24.09;100.00
19236;BME280;9752;54.270;12.470;2023-07-20T15:54:04;101783.50;;;23.82;100.00
19236;BME280;9752;54.270;12.470;2023-07-20T15:59:10;101766.38;;;22.93;100.00
19236;BME280;9752;54.270;12.470;2023-07-20T16:04:13;101755.53;;;22.49;100.00
19236;BME280;9752;54.270;12.470;2023-07-20T16:09:15;101775.25;;;23.31;100.00
19236;BME280;9752;54.270;12.470;2023-07-20T16:14:18;101726.88;;;21.70;100.00
19236;BME280;9752;54.270;12.470;2023-07-20T16:19:20;101704.81;;;19.37;100.00
19236;BME280;9752;54.270;12.470;2023-07-20T16:24:21;101720.16;;;19.94;100.00
19236;BME280;9752;54.270;12.470;2023-07-20T16:29:25;101691.31;;;19.28;100.00
19236;BME280;9752;54.270;12.470;2023-07-20T16:34:27;101723.84;;;20.23;100.00
19236;BME280;9752;54.270;12.470;2023-07-20T16:39:28;101679.75;;;19.02;100.00
19236;BME280;9752;54.270;12.470;2023-07-20T16:44:32;101728.59;;;19.40;100.00
19236;BME280;9752;54.270;12.470;2023-07-20T16:49:34;101722.38;;;19.83;100.00
19236;BME280;9752;54.270;12.470;2023-07-20T16:54:35;101770.31;;;20.97;100.00
19236;BME280;9752;54.270;12.470;2023-07-20T16:59:38;101699.97;;;20.19;100.00
19236;BME280;9752;54.270;12.470;2023-07-20T17:04:40;101711.25;;;19.23;100.00
19236;BME280;9752;54.270;12.470;2023-07-20T17:09:42;101701.13;;;18.67;100.00
19236;BME280;9752;54.270;12.470;2023-07-20T17:14:45;101703.22;;;18.55;100.00
19236;BME280;9752;54.270;12.470;2023-07-20T17:19:47;101701.59;;;18.38;100.00
19236;BME280;9752;54.270;12.470;2023-07-20T17:24:49;101713.13;;;18.82;100.00
19236;BME280;9752;54.270;12.470;2023-07-20T17:29:52;101734.69;;;19.17;100.00
19236;BME280;9752;54.270;12.470;2023-07-20T17:34:55;101736.50;;;19.40;100.00
19236;BME280;9752;54.270;12.470;2023-07-20T17:39:56;101777.38;;;19.98;100.00
19236;BME280;9752;54.270;12.470;2023-07-20T17:45:00;101720.09;;;19.70;100.00
19236;BME280;9752;54.270;12.470;2023-07-20T17:50:01;101750.53;;;21.38;100.00
19236;BME280;9752;54.270;12.470;2023-07-20T17:55:03;101786.63;;;23.65;100.00
19236;BME280;9752;54.270;12.470;2023-07-20T18:00:08;101752.75;;;23.12;100.00
19236;BME280;9752;54.270;12.470;2023-07-20T18:05:10;101778.16;;;23.42;100.00
19236;BME280;9752;54.270;12.470;2023-07-20T18:10:13;101792.16;;;23.02;100.00
19236;BME280;9752;54.270;12.470;2023-07-20T18:15:16;101673.78;;;20.49;100.00
19236;BME280;9752;54.270;12.470;2023-07-20T18:20:18;101708.28;;;20.31;100.00
19236;BME280;9752;54.270;12.470;2023-07-20T18:25:20;101703.84;;;22.27;100.00
19236;BME280;9752;54.270;12.470;2023-07-20T18:30:24;101686.50;;;20.88;100.00
19236;BME280;9752;54.270;12.470;2023-07-20T18:35:33;101715.84;;;21.55;100.00
19236;BME280;9752;54.270;12.470;2023-07-20T18:40:34;101698.22;;;20.96;100.00
19236;BME280;9752;54.270;12.470;2023-07-20T18:45:38;101654.19;;;18.77;100.00
19236;BME280;9752;54.270;12.470;2023-07-20T18:50:41;101636.47;;;17.12;100.00
19236;BME280;9752;54.270;12.470;2023-07-20T18:55:42;101633.72;;;16.55;100.00
19236;BME280;9752;54.270;12.470;2023-07-20T19:00:45;101669.38;;;16.35;100.00
19236;BME280;9752;54.270;12.470;2023-07-20T19:05:49;101652.88;;;16.19;100.00
19236;BME280;9752;54.270;12.470;2023-07-20T19:10:51;101673.59;;;16.15;100.00
19236;BME280;9752;54.270;12.470;2023-07-20T19:15:54;101671.66;;;16.11;100.00
19236;BME280;9752;54.270;12.470;2023-07-20T19:20:59;101671.88;;;15.99;100.00
19236;BME280;9752;54.270;12.470;2023-07-20T19:26:04;101662.84;;;15.92;100.00
19236;BME280;9752;54.270;12.470;2023-07-20T19:31:08;101685.09;;;15.84;100.00
19236;BME280;9752;54.270;12.470;2023-07-20T19:36:09;101686.50;;;15.62;100.00
19236;BME280;9752;54.270;12.470;2023-07-20T19:41:11;101692.72;;;15.65;100.00
19236;BME280;9752;54.270;12.470;2023-07-20T19:46:14;101702.34;;;15.49;100.00
19236;BME280;9752;54.270;12.470;2023-07-20T19:51:16;101703.66;;;15.57;100.00
19236;BME280;9752;54.270;12.470;2023-07-20T19:56:18;101704.34;;;15.70;100.00
19236;BME280;9752;54.270;12.470;2023-07-20T20:01:21;101708.66;;;15.69;100.00
19236;BME280;9752;54.270;12.470;2023-07-20T20:06:23;101706.91;;;15.85;100.00
19236;BME280;9752;54.270;12.470;2023-07-20T20:11:25;101715.47;;;15.98;100.00
19236;BME280;9752;54.270;12.470;2023-07-20T20:16:28;101729.72;;;16.04;100.00
19236;BME280;9752;54.270;12.470;2023-07-20T20:21:30;101727.56;;;15.80;100.00
19236;BME280;9752;54.270;12.470;2023-07-20T20:26:31;101726.72;;;15.48;100.00
19236;BME280;9752;54.270;12.470;2023-07-20T20:31:38;101717.75;;;15.28;100.00
19236;BME280;9752;54.270;12.470;2023-07-20T20:36:40;101729.13;;;15.14;100.00
19236;BME280;9752;54.270;12.470;2023-07-20T20:41:43;101722.88;;;15.27;100.00
19236;BME280;9752;54.270;12.470;2023-07-20T20:46:48;101718.94;;;15.18;100.00
19236;BME280;9752;54.270;12.470;2023-07-20T20:51:50;101735.81;;;15.09;100.00
19236;BME280;9752;54.270;12.470;2023-07-20T20:56:51;101736.94;;;15.29;100.00
19236;BME280;9752;54.270;12.470;2023-07-20T21:01:56;101747.25;;;15.26;100.00
19236;BME280;9752;54.270;12.470;2023-07-20T21:06:58;101741.91;;;15.24;100.00
19236;BME280;9752;54.270;12.470;2023-07-20T21:12:00;101738.00;;;15.32;100.00
19236;BME280;9752;54.270;12.470;2023-07-20T21:17:03;101731.97;;;15.33;100.00
19236;BME280;9752;54.270;12.470;2023-07-20T21:22:05;101733.22;;;15.40;100.00
19236;BME280;9752;54.270;12.470;2023-07-20T21:27:07;101725.50;;;15.27;100.00
19236;BME280;9752;54.270;12.470;2023-07-20T21:32:10;101724.78;;;15.29;100.00
19236;BME280;9752;54.270;12.470;2023-07-20T21:37:11;101729.59;;;15.38;100.00
19236;BME280;9752;54.270;12.470;2023-07-20T21:42:13;101725.28;;;15.38;100.00
19236;BME280;9752;54.270;12.470;2023-07-20T21:47:16;101731.44;;;15.55;100.00
19236;BME280;9752;54.270;12.470;2023-07-20T21:52:19;101750.50;;;15.21;100.00
19236;BME280;9752;54.270;12.470;2023-07-20T21:57:21;101785.59;;;14.09;100.00
19236;BME280;9752;54.270;12.470;2023-07-20T22:02:24;101764.00;;;13.42;100.00
19236;BME280;9752;54.270;12.470;2023-07-20T22:07:25;101796.16;;;13.02;100.00
19236;BME280;9752;54.270;12.470;2023-07-20T22:12:28;101838.16;;;12.82;100.00
19236;BME280;9752;54.270;12.470;2023-07-20T22:17:31;101841.91;;;12.99;100.00
19236;BME280;9752;54.270;12.470;2023-07-20T22:22:33;101837.31;;;13.08;100.00
19236;BME280;9752;54.270;12.470;2023-07-20T22:27:35;101866.59;;;13.17;100.00
19236;BME280;9752;54.270;12.470;2023-07-20T22:32:38;101884.22;;;13.21;100.00
19236;BME280;9752;54.270;12.470;2023-07-20T22:37:40;102023.25;;;13.47;100.00
19236;BME280;9752;54.270;12.470;2023-07-20T22:42:42;102034.88;;;13.52;100.00
19236;BME280;9752;54.270;12.470;2023-07-20T22:47:47;102076.28;;;13.47;100.00
19236;BME280;9752;54.270;12.470;2023-07-20T22:52:48;102104.25;;;13.50;100.00
19236;BME280;9752;54.270;12.470;2023-07-20T22:57:50;102141.38;;;13.59;100.00
19236;BME280;9752;54.270;12.470;2023-07-20T23:02:55;102171.28;;;13.64;100.00
19236;BME280;9752;54.270;12.470;2023-07-20T23:07:57;102156.78;;;13.56;100.00
19236;BME280;9752;54.270;12.470;2023-07-20T23:12:58;102210.75;;;13.57;100.00
19236;BME280;9752;54.270;12.470;2023-07-20T23:18:02;102350.75;;;13.58;100.00
19236;BME280;9752;54.270;12.470;2023-07-20T23:23:04;102378.88;;;13.62;100.00
19236;BME280;9752;54.270;12.470;2023-07-20T23:28:08;102406.63;;;13.62;100.00
19236;BME280;9752;54.270;12.470;2023-07-20T23:33:11;102400.19;;;13.57;100.00
19236;BME280;9752;54.270;12.470;2023-07-20T23:38:12;102429.44;;;13.53;100.00
19236;BME280;9752;54.270;12.470;2023-07-20T23:43:14;102450.59;;;13.34;100.00
19236;BME280;9752;54.270;12.470;2023-07-20T23:48:17;102472.47;;;13.36;100.00
19236;BME280;9752;54.270;12.470;2023-07-20T23:53:19;102472.75;;;13.28;100.00
19236;BME280;9752;54.270;12.470;2023-07-20T23:58:20;102500.63;;;13.29;100.00
